createdAt,value
2022-10-18T00:01:01.264Z,11.50
2022-10-18T00:03:29.712Z,11.50
2022-10-18T00:05:59.670Z,11.50
2022-10-18T00:08:28.452Z,11.50
2022-10-18T00:10:56.522Z,11.40
2022-10-18T00:13:25.222Z,11.40
2022-10-18T00:15:57.046Z,11.50
2022-10-18T00:18:25.672Z,11.40
2022-10-18T00:21:03.311Z,11.40
2022-10-18T00:23:32.502Z,11.40
2022-10-18T00:26:05.381Z,11.40
2022-10-18T00:28:34.660Z,11.40
2022-10-18T00:31:14.828Z,11.40
2022-10-18T00:33:43.755Z,11.30
2022-10-18T00:36:14.249Z,11.30
2022-10-18T00:38:42.302Z,11.20
2022-10-18T00:41:14.453Z,11.10
2022-10-18T00:43:53.393Z,11.10
2022-10-18T00:46:21.737Z,11.00
2022-10-18T00:48:50.574Z,11.00
2022-10-18T00:51:21.722Z,10.90
2022-10-18T00:53:50.061Z,10.90
2022-10-18T00:56:18.938Z,10.90
2022-10-18T00:58:48.807Z,10.80
2022-10-18T01:01:17.141Z,10.80
2022-10-18T01:03:45.156Z,10.70
2022-10-18T01:06:13.341Z,10.70
2022-10-18T01:08:59.920Z,10.60
2022-10-18T01:11:46.828Z,10.60
2022-10-18T01:14:26.873Z,10.60
2022-10-18T01:17:00.145Z,10.60
2022-10-18T01:20:03.251Z,10.60
2022-10-18T01:22:37.694Z,10.50
2022-10-18T01:25:21.126Z,10.50
2022-10-18T01:27:56.560Z,10.50
2022-10-18T01:30:39.074Z,10.50
2022-10-18T01:33:22.923Z,10.50
2022-10-18T01:35:55.989Z,10.50
2022-10-18T01:38:26.497Z,10.50
2022-10-18T01:40:56.215Z,10.50
2022-10-18T01:43:27.543Z,10.50
2022-10-18T01:45:59.159Z,10.60
2022-10-18T01:48:27.842Z,10.50
2022-10-18T01:50:55.885Z,10.60
2022-10-18T01:53:30.682Z,10.50
2022-10-18T01:56:27.298Z,10.50
2022-10-18T01:59:08.636Z,10.50
2022-10-18T02:01:48.362Z,10.50
2022-10-18T02:04:24.934Z,10.50
2022-10-18T02:07:04.765Z,10.50
2022-10-18T02:09:39.424Z,10.50
2022-10-18T02:12:13.112Z,10.50
2022-10-18T02:14:43.055Z,10.50
2022-10-18T02:17:14.012Z,10.60
2022-10-18T02:19:45.035Z,10.60
2022-10-18T02:22:15.043Z,10.60
2022-10-18T02:24:47.315Z,10.60
2022-10-18T02:27:40.883Z,10.60
2022-10-18T02:30:10.895Z,10.60
2022-10-18T02:32:44.543Z,10.60
2022-10-18T02:35:19.019Z,10.60
2022-10-18T02:37:49.327Z,10.60
2022-10-18T02:40:18.328Z,10.60
2022-10-18T02:42:49.359Z,10.60
2022-10-18T02:45:18.120Z,10.60
2022-10-18T02:47:47.429Z,10.60
2022-10-18T02:50:15.579Z,10.60
2022-10-18T02:52:43.602Z,10.50
2022-10-18T02:55:11.859Z,10.50
2022-10-18T02:57:39.950Z,10.50
2022-10-18T03:00:09.433Z,10.50
2022-10-18T03:02:37.471Z,10.50
2022-10-18T03:05:07.212Z,10.50
2022-10-18T03:07:37.988Z,10.40
2022-10-18T03:10:06.936Z,10.40
2022-10-18T03:12:35.000Z,10.40
2022-10-18T03:15:03.083Z,10.40
2022-10-18T03:17:31.254Z,10.30
2022-10-18T03:19:59.439Z,10.30
2022-10-18T03:25:02.067Z,10.20
2022-10-18T03:27:30.290Z,10.20
2022-10-18T03:29:59.231Z,10.20
2022-10-18T03:32:27.298Z,10.20
2022-10-18T03:34:55.389Z,10.20
2022-10-18T03:37:23.493Z,10.10
2022-10-18T03:39:53.026Z,10.10
2022-10-18T03:42:21.017Z,10.10
2022-10-18T03:44:49.132Z,10.10
2022-10-18T03:47:17.240Z,10.00
2022-10-18T03:49:45.324Z,10.00
2022-10-18T03:52:13.387Z,10.00
2022-10-18T03:54:41.521Z,10.00
2022-10-18T03:57:10.877Z,9.90
2022-10-18T03:59:39.000Z,9.90
2022-10-18T04:02:07.194Z,9.90
2022-10-18T04:04:35.289Z,9.90
2022-10-18T04:07:03.947Z,9.90
2022-10-18T04:09:31.969Z,9.80
2022-10-18T04:11:59.969Z,9.80
2022-10-18T04:14:29.732Z,9.90
2022-10-18T04:16:57.927Z,9.80
2022-10-18T04:19:25.979Z,9.80
2022-10-18T04:21:54.448Z,9.80
2022-10-18T04:24:22.846Z,9.90
2022-10-18T04:26:50.972Z,9.80
2022-10-18T04:29:19.120Z,9.90
2022-10-18T04:31:48.628Z,9.90
2022-10-18T04:34:17.113Z,9.80
2022-10-18T04:36:45.206Z,9.80
2022-10-18T04:39:13.169Z,9.80
2022-10-18T04:41:41.407Z,9.80
2022-10-18T04:52:59.922Z,9.70
2022-10-18T04:55:28.315Z,9.70
2022-10-18T04:57:56.333Z,9.70
2022-10-18T05:00:24.440Z,9.60
2022-10-18T05:03:02.578Z,9.60
2022-10-18T05:05:49.745Z,9.50
2022-10-18T05:08:23.261Z,9.60
2022-10-18T05:11:16.386Z,9.50
2022-10-18T05:13:47.177Z,9.50
2022-10-18T05:16:18.110Z,9.60
2022-10-18T05:18:46.275Z,9.60
2022-10-18T05:21:14.434Z,9.60
2022-10-18T05:23:43.967Z,9.60
2022-10-18T05:26:12.022Z,9.60
2022-10-18T05:28:41.071Z,9.60
2022-10-18T05:31:11.603Z,9.60
2022-10-18T05:33:39.972Z,9.60
2022-10-18T05:36:08.894Z,9.60
2022-10-18T05:38:40.176Z,9.50
2022-10-18T05:41:09.918Z,9.50
2022-10-18T05:43:38.085Z,9.50
2022-10-18T05:46:11.881Z,9.50
2022-10-18T05:48:43.365Z,9.50
2022-10-18T05:51:11.505Z,9.50
2022-10-18T05:53:39.585Z,9.60
2022-10-18T05:56:11.731Z,9.60
2022-10-18T05:58:40.612Z,9.60
2022-10-18T06:01:09.836Z,9.60
2022-10-18T06:03:38.026Z,9.70
2022-10-18T06:06:08.458Z,9.70
2022-10-18T06:08:37.483Z,9.80
2022-10-18T06:11:09.948Z,9.80
2022-10-18T06:13:42.085Z,9.90
2022-10-18T06:16:10.874Z,10.00
2022-10-18T06:18:39.174Z,10.00
2022-10-18T06:21:08.049Z,10.10
2022-10-18T06:23:36.540Z,10.10
2022-10-18T06:26:06.956Z,10.20
2022-10-18T06:28:37.434Z,10.30
2022-10-18T06:31:06.540Z,10.30
2022-10-18T06:33:36.091Z,10.40
2022-10-18T06:36:06.768Z,10.40
2022-10-18T06:38:35.959Z,10.50
2022-10-18T06:41:04.878Z,10.60
2022-10-18T06:43:33.064Z,10.70
2022-10-18T06:46:05.131Z,10.70
2022-10-18T06:48:33.741Z,10.70
2022-10-18T06:51:03.418Z,10.80
2022-10-18T06:53:32.611Z,10.90
2022-10-18T06:56:01.763Z,10.90
2022-10-18T06:58:29.861Z,11.00
2022-10-18T07:00:58.721Z,11.10
2022-10-18T07:03:28.097Z,11.20
2022-10-18T07:06:01.121Z,11.30
2022-10-18T07:08:29.624Z,11.30
2022-10-18T07:10:57.719Z,11.40
2022-10-18T07:13:32.484Z,11.50
2022-10-18T07:16:06.332Z,11.60
2022-10-18T07:18:42.594Z,11.60
2022-10-18T07:21:12.894Z,11.70
2022-10-18T07:23:42.763Z,11.70
2022-10-18T07:26:15.219Z,11.80
2022-10-18T07:28:43.560Z,11.90
2022-10-18T07:31:12.308Z,11.90
2022-10-18T07:33:42.948Z,11.90
2022-10-18T07:36:12.701Z,12.00
2022-10-18T07:38:41.491Z,12.10
2022-10-18T07:41:11.947Z,12.10
2022-10-18T07:43:43.202Z,12.20
2022-10-18T07:46:11.513Z,12.30
2022-10-18T07:48:41.100Z,12.40
2022-10-18T07:51:10.259Z,12.50
2022-10-18T07:53:38.816Z,12.70
2022-10-18T07:56:11.567Z,12.70
2022-10-18T07:58:39.740Z,12.90
2022-10-18T08:01:09.808Z,13.00
2022-10-18T08:03:39.244Z,13.10
2022-10-18T08:06:10.920Z,13.10
2022-10-18T08:08:40.375Z,13.20
2022-10-18T08:11:10.041Z,13.30
2022-10-18T08:13:38.348Z,13.30
2022-10-18T08:16:08.653Z,13.40
2022-10-18T08:18:37.565Z,13.40
2022-10-18T08:21:09.729Z,13.60
2022-10-18T08:23:38.415Z,13.70
2022-10-18T08:26:09.193Z,13.90
2022-10-18T08:28:37.601Z,13.90
2022-10-18T08:31:06.896Z,14.10
2022-10-18T08:33:35.879Z,14.20
2022-10-18T08:36:06.756Z,14.30
2022-10-18T08:38:37.644Z,14.50
2022-10-18T08:41:38.472Z,14.60
2022-10-18T08:44:12.163Z,14.80
2022-10-18T08:46:45.262Z,15.00
2022-10-18T08:49:21.958Z,15.10
2022-10-18T08:51:52.114Z,15.30
2022-10-18T08:54:26.851Z,15.30
2022-10-18T08:57:00.871Z,15.30
2022-10-18T08:59:35.341Z,15.30
2022-10-18T09:02:16.717Z,15.30
2022-10-18T09:04:53.453Z,15.30
2022-10-18T09:08:09.434Z,15.30
2022-10-18T09:10:46.291Z,15.30
2022-10-18T09:13:36.316Z,15.50
2022-10-18T09:16:06.204Z,15.60
2022-10-18T09:18:53.127Z,15.80
2022-10-18T09:21:24.914Z,15.80
2022-10-18T09:24:09.555Z,15.90
2022-10-18T09:26:45.338Z,16.00
2022-10-18T09:29:31.265Z,16.00
2022-10-18T09:32:07.561Z,16.10
2022-10-18T09:34:41.154Z,16.10
2022-10-18T09:37:14.488Z,16.20
2022-10-18T09:39:43.255Z,16.20
2022-10-18T09:42:19.373Z,16.30
2022-10-18T09:44:52.624Z,16.40
2022-10-18T09:47:25.725Z,16.30
2022-10-18T09:49:58.446Z,16.30
2022-10-18T09:52:29.647Z,16.40
2022-10-18T09:55:02.261Z,16.40
2022-10-18T09:57:36.750Z,16.50
2022-10-18T10:00:07.847Z,16.60
2022-10-18T10:02:38.251Z,16.80
2022-10-18T10:07:48.642Z,17.10
2022-10-18T10:10:21.942Z,17.30
2022-10-18T10:13:05.751Z,17.40
2022-10-18T10:15:38.263Z,17.50
2022-10-18T10:18:23.210Z,17.60
2022-10-18T10:20:54.310Z,17.60
2022-10-18T10:23:26.110Z,17.50
2022-10-18T10:25:56.003Z,17.40
2022-10-18T10:28:29.671Z,17.30
2022-10-18T10:31:18.621Z,17.20
2022-10-18T10:33:48.395Z,17.10
2022-10-18T10:36:21.082Z,17.00
2022-10-18T10:39:05.110Z,17.00
2022-10-18T10:41:33.621Z,17.10
2022-10-18T10:44:05.278Z,17.20
2022-10-18T10:46:37.685Z,17.20
2022-10-18T10:52:08.259Z,17.30
2022-10-18T10:54:39.044Z,17.40
2022-10-18T10:57:17.790Z,17.40
2022-10-18T10:59:50.714Z,17.40
2022-10-18T11:02:22.556Z,17.50
2022-10-18T11:04:52.567Z,17.60
2022-10-18T11:07:29.004Z,17.70
2022-10-18T11:10:04.538Z,17.80
2022-10-18T11:12:35.459Z,17.90
2022-10-18T11:15:22.103Z,18.00
2022-10-18T11:18:03.440Z,18.10
2022-10-18T11:20:36.243Z,18.20
2022-10-18T11:23:07.426Z,18.30
2022-10-18T11:25:51.594Z,18.40
2022-10-18T11:28:29.679Z,18.40
2022-10-18T11:31:13.157Z,18.50
2022-10-18T11:34:09.594Z,18.60
2022-10-18T11:36:54.707Z,18.60
2022-10-18T11:39:42.737Z,18.70
2022-10-18T11:42:19.015Z,18.80
2022-10-18T11:44:56.993Z,18.90
2022-10-18T11:47:34.493Z,19.10
2022-10-18T11:50:20.375Z,19.10
2022-10-18T11:52:57.470Z,19.20
2022-10-18T11:55:37.187Z,19.20
2022-10-18T11:58:18.454Z,19.30
2022-10-18T12:00:50.009Z,19.40
2022-10-18T12:03:38.593Z,19.40
2022-10-18T12:06:13.615Z,19.50
2022-10-18T12:08:45.287Z,19.50
2022-10-18T12:11:17.881Z,19.60
2022-10-18T12:13:50.113Z,19.60
2022-10-18T12:16:38.068Z,19.70
2022-10-18T12:19:22.056Z,19.80
2022-10-18T12:21:54.962Z,19.70
2022-10-18T12:24:26.059Z,19.80
2022-10-18T12:26:59.791Z,19.80
2022-10-18T12:29:33.893Z,19.90
2022-10-18T12:32:06.834Z,20.00
2022-10-18T12:34:43.052Z,20.10
2022-10-18T12:37:40.840Z,20.20
2022-10-18T12:40:18.493Z,20.30
2022-10-18T12:42:51.679Z,20.30
2022-10-18T12:45:26.174Z,20.40
2022-10-18T12:47:54.568Z,20.40
2022-10-18T12:50:31.109Z,20.50
2022-10-18T12:53:13.582Z,20.60
2022-10-18T12:58:29.416Z,20.70
2022-10-18T13:01:08.533Z,20.70
2022-10-18T13:03:44.118Z,20.80
2022-10-18T13:06:13.797Z,20.90
2022-10-18T13:08:46.147Z,20.90
2022-10-18T13:11:36.826Z,21.00
2022-10-18T13:14:53.570Z,21.00
2022-10-18T13:17:40.464Z,21.00
2022-10-18T13:20:25.926Z,21.10
2022-10-18T13:23:09.023Z,21.30
2022-10-18T13:25:50.621Z,21.50
2022-10-18T13:28:27.472Z,21.70
2022-10-18T13:30:59.658Z,22.00
2022-10-18T13:33:33.208Z,22.30
2022-10-18T13:36:02.895Z,22.50
2022-10-18T13:38:48.471Z,22.80
2022-10-18T13:41:19.614Z,23.00
2022-10-18T13:43:59.791Z,23.30
2022-10-18T13:47:01.339Z,23.50
2022-10-18T13:49:44.661Z,23.70
2022-10-18T13:52:19.629Z,23.80
2022-10-18T13:55:16.806Z,24.00
2022-10-18T13:57:59.496Z,24.10
2022-10-18T14:00:48.265Z,24.00
2022-10-18T14:04:02.226Z,23.90
2022-10-18T14:07:02.208Z,23.90
2022-10-18T14:09:52.468Z,23.90
2022-10-18T14:12:30.334Z,24.00
2022-10-18T14:15:06.234Z,24.10
2022-10-18T14:17:40.982Z,24.20
2022-10-18T14:20:22.997Z,24.30
2022-10-18T14:22:58.448Z,24.30
2022-10-18T14:25:29.534Z,24.50
2022-10-18T14:28:13.991Z,24.50
2022-10-18T14:31:02.015Z,24.30
2022-10-18T14:33:34.386Z,24.00
2022-10-18T14:36:11.569Z,23.70
2022-10-18T14:38:52.187Z,23.40
2022-10-18T14:41:23.689Z,23.00
2022-10-18T14:43:54.953Z,22.90
2022-10-18T14:46:28.989Z,22.90
2022-10-18T14:49:00.755Z,22.90
2022-10-18T14:51:32.912Z,22.80
2022-10-18T14:54:01.798Z,22.60
2022-10-18T14:56:31.852Z,22.50
2022-10-18T14:59:03.826Z,22.50
2022-10-18T15:01:36.241Z,22.50
2022-10-18T15:04:09.342Z,22.40
2022-10-18T15:06:37.368Z,22.40
2022-10-18T15:09:06.599Z,22.40
2022-10-18T15:11:34.941Z,22.40
2022-10-18T15:14:08.234Z,22.40
2022-10-18T15:16:39.412Z,22.20
2022-10-18T15:19:09.200Z,22.20
2022-10-18T15:21:37.695Z,22.10
2022-10-18T15:24:23.119Z,22.00
2022-10-18T15:26:52.801Z,22.00
2022-10-18T15:29:24.801Z,21.90
2022-10-18T15:31:53.539Z,21.90
2022-10-18T15:34:24.421Z,21.80
2022-10-18T15:36:54.639Z,21.70
2022-10-18T15:39:25.050Z,21.60
2022-10-18T15:41:54.597Z,21.50
2022-10-18T15:44:28.132Z,21.30
2022-10-18T15:46:59.103Z,21.00
2022-10-18T15:49:58.274Z,20.60
2022-10-18T15:52:38.173Z,20.30
2022-10-18T15:55:44.646Z,20.10
2022-10-18T15:58:17.284Z,20.00
2022-10-18T16:00:48.030Z,20.00
2022-10-18T16:03:17.313Z,19.90
2022-10-18T16:05:45.668Z,19.80
2022-10-18T16:08:23.024Z,19.60
2022-10-18T16:10:51.765Z,19.30
2022-10-18T16:13:20.062Z,19.10
2022-10-18T16:15:49.434Z,18.90
2022-10-18T16:18:20.200Z,18.70
2022-10-18T16:20:49.370Z,18.60
2022-10-18T16:23:19.484Z,18.60
2022-10-18T16:25:48.224Z,18.50
2022-10-18T16:28:18.543Z,18.50
2022-10-18T16:30:53.795Z,18.40
2022-10-18T16:33:21.926Z,18.30
2022-10-18T16:35:50.400Z,18.30
2022-10-18T16:38:25.351Z,18.30
2022-10-18T16:40:53.788Z,18.30
2022-10-18T16:43:21.843Z,18.20
2022-10-18T16:45:52.736Z,18.20
2022-10-18T16:48:23.394Z,18.10
2022-10-18T16:50:52.067Z,18.10
2022-10-18T16:53:23.411Z,18.10
2022-10-18T16:55:54.882Z,18.20
2022-10-18T17:00:58.456Z,18.20
2022-10-18T17:03:27.055Z,18.10
2022-10-18T17:05:56.343Z,18.00
2022-10-18T17:08:27.535Z,17.90
2022-10-18T17:10:58.071Z,17.90
2022-10-18T17:13:27.482Z,17.90
2022-10-18T17:15:59.258Z,17.80
2022-10-18T17:18:27.599Z,17.80
2022-10-18T17:20:56.550Z,17.80
2022-10-18T17:23:24.814Z,17.80
2022-10-18T17:26:05.308Z,17.70
2022-10-18T17:28:35.464Z,17.60
2022-10-18T17:31:09.557Z,17.60
2022-10-18T17:33:38.093Z,17.50
2022-10-18T17:36:06.321Z,17.50
2022-10-18T17:38:34.392Z,17.50
2022-10-18T17:41:07.651Z,17.50
2022-10-18T17:43:37.482Z,17.50
2022-10-18T17:46:08.211Z,17.40
2022-10-18T17:48:36.665Z,17.40
2022-10-18T17:51:08.762Z,17.40
2022-10-18T17:53:36.907Z,17.40
2022-10-18T17:56:06.149Z,17.40
2022-10-18T17:58:34.459Z,17.30
2022-10-18T18:01:11.501Z,17.20
2022-10-18T18:03:40.279Z,17.20
2022-10-18T18:06:16.184Z,17.20
2022-10-18T18:08:44.815Z,17.20
2022-10-18T18:11:12.922Z,17.10
2022-10-18T18:13:41.252Z,17.10
2022-10-18T18:16:16.112Z,17.10
2022-10-18T18:18:45.383Z,17.10
2022-10-18T18:21:15.343Z,17.00
2022-10-18T18:23:43.816Z,17.00
2022-10-18T18:26:11.968Z,16.90
2022-10-18T18:28:40.137Z,16.90
2022-10-18T18:31:09.597Z,17.00
2022-10-18T18:33:39.544Z,16.90
2022-10-18T18:36:08.609Z,16.90
2022-10-18T18:38:38.562Z,17.00
2022-10-18T18:41:08.857Z,16.90
2022-10-18T18:43:37.953Z,16.80
2022-10-18T18:46:06.219Z,16.80
2022-10-18T18:48:35.333Z,16.70
2022-10-18T18:51:07.223Z,16.60
2022-10-18T18:53:35.348Z,16.60
2022-10-18T18:56:05.431Z,16.50
2022-10-18T18:58:35.813Z,16.40
2022-10-18T19:01:08.282Z,16.40
2022-10-18T19:03:38.337Z,16.40
2022-10-18T19:06:11.070Z,16.40
2022-10-18T19:08:40.265Z,16.30
2022-10-18T19:11:09.524Z,16.30
2022-10-18T19:13:37.937Z,16.30
2022-10-18T19:16:20.221Z,16.30
2022-10-18T19:19:00.244Z,16.30
2022-10-18T19:21:31.633Z,16.30
2022-10-18T19:24:00.152Z,16.30
2022-10-18T19:26:34.492Z,16.30
2022-10-18T19:29:05.878Z,16.30
2022-10-18T19:31:35.226Z,16.30
2022-10-18T19:34:06.242Z,16.20
2022-10-18T19:36:36.157Z,16.10
2022-10-18T19:39:05.512Z,16.10
2022-10-18T19:41:33.608Z,16.10
2022-10-18T19:44:01.840Z,16.00
2022-10-18T19:46:30.219Z,16.00
2022-10-18T19:48:58.622Z,16.00
2022-10-18T19:51:28.335Z,16.00
2022-10-18T19:53:58.474Z,16.00
2022-10-18T19:56:28.225Z,16.00
2022-10-18T19:58:57.682Z,15.90
2022-10-18T20:01:26.679Z,15.90
2022-10-18T20:03:55.327Z,15.90
2022-10-18T20:06:23.362Z,15.80
2022-10-18T20:08:51.803Z,15.90
2022-10-18T20:11:23.611Z,15.90
2022-10-18T20:13:52.266Z,15.80
2022-10-18T20:16:27.738Z,15.90
2022-10-18T20:18:57.679Z,15.90
2022-10-18T20:21:26.105Z,15.90
2022-10-18T20:23:54.558Z,15.90
2022-10-18T20:26:25.499Z,15.80
2022-10-18T20:28:56.884Z,15.80
2022-10-18T20:31:26.337Z,15.90
2022-10-18T20:33:59.058Z,15.90
2022-10-18T20:36:28.094Z,15.90
2022-10-18T20:38:56.649Z,15.90
2022-10-18T20:41:27.861Z,15.80
2022-10-18T20:43:57.883Z,15.70
2022-10-18T20:46:26.797Z,15.70
2022-10-18T20:48:55.548Z,15.70
2022-10-18T20:51:24.015Z,15.70
2022-10-18T20:53:53.573Z,15.60
2022-10-18T20:56:23.979Z,15.60
2022-10-18T20:58:55.945Z,15.60
2022-10-18T21:01:25.833Z,15.60
2022-10-18T21:03:56.582Z,15.50
2022-10-18T21:06:26.191Z,15.50
2022-10-18T21:08:55.787Z,15.40
2022-10-18T21:11:23.900Z,15.40
2022-10-18T21:13:54.457Z,15.40
2022-10-18T21:16:23.080Z,15.40
2022-10-18T21:18:51.125Z,15.40
2022-10-18T21:21:21.260Z,15.30
2022-10-18T21:23:49.623Z,15.20
2022-10-18T21:26:20.188Z,15.20
2022-10-18T21:28:50.346Z,15.20
2022-10-18T21:31:21.982Z,15.20
2022-10-18T21:33:54.683Z,15.20
2022-10-18T21:36:23.534Z,15.20
2022-10-18T21:38:52.118Z,15.10
2022-10-18T21:41:22.093Z,15.00
2022-10-18T21:44:16.460Z,15.00
2022-10-18T21:46:47.049Z,15.10
2022-10-18T21:49:16.094Z,15.10
2022-10-18T21:51:44.194Z,15.10
2022-10-18T21:54:14.220Z,15.10
2022-10-18T21:56:42.932Z,15.10
2022-10-18T21:59:12.268Z,15.10
2022-10-18T22:01:40.867Z,15.10
2022-10-18T22:04:20.297Z,15.10
2022-10-18T22:06:48.507Z,15.10
2022-10-18T22:09:17.123Z,15.10
2022-10-18T22:11:47.419Z,15.10
2022-10-18T22:14:15.489Z,15.10
2022-10-18T22:16:43.546Z,15.10
2022-10-18T22:19:13.015Z,15.10
2022-10-18T22:21:41.102Z,15.10
2022-10-18T22:24:10.495Z,15.10
2022-10-18T22:26:40.728Z,15.10
2022-10-18T22:29:11.159Z,15.00
2022-10-18T22:31:41.136Z,15.00
2022-10-18T22:34:11.978Z,15.00
2022-10-18T22:36:41.605Z,15.00
2022-10-18T22:39:10.507Z,15.00
2022-10-18T22:41:38.865Z,15.10
2022-10-18T22:44:08.082Z,15.10
2022-10-18T22:46:36.581Z,15.10
2022-10-18T22:49:04.949Z,15.00
2022-10-18T22:51:33.108Z,15.00
2022-10-18T22:54:02.391Z,15.00
2022-10-18T22:56:30.530Z,14.90
2022-10-18T22:58:58.597Z,14.80
2022-10-18T23:01:32.755Z,14.80
2022-10-18T23:06:54.372Z,14.80
2022-10-18T23:09:23.737Z,14.70
2022-10-18T23:11:52.921Z,14.60
2022-10-18T23:14:21.165Z,14.60
2022-10-18T23:16:49.135Z,14.50
2022-10-18T23:19:17.396Z,14.40
2022-10-18T23:21:45.428Z,14.50
2022-10-18T23:24:13.480Z,14.40
2022-10-18T23:26:42.893Z,14.30
2022-10-18T23:29:11.034Z,14.20
2022-10-18T23:31:39.822Z,14.10
2022-10-18T23:34:07.799Z,14.00
2022-10-18T23:36:36.012Z,13.90
2022-10-18T23:39:05.029Z,13.90
2022-10-18T23:41:33.289Z,13.90
2022-10-18T23:44:02.745Z,13.80
2022-10-18T23:46:31.415Z,13.80
2022-10-18T23:48:59.443Z,13.80
2022-10-18T23:51:27.579Z,13.70
2022-10-18T23:53:55.595Z,13.70
2022-10-18T23:56:23.693Z,13.70
2022-10-18T23:58:51.751Z,13.70
